Time;durP1;ratioP1;P1;durP2;ratioP2;P2;SDS_P1;SDS_P2;PMS_P1;PMS_P2;Temp;Humidity;BMP_temperature;BMP_pressure;BME280_temperature;BME280_humidity;BME280_pressure;Samples;Min_cycle;Max_cycle;Signal;HPM_P1;HPM_P2
2021/07/25 00:00:35;;;;;;;14.02;8.80;;;;;;;;;;5075523;28;20366;-69
2021/07/25 00:03:01;;;;;;;13.98;9.15;;;;;;;;;;5075443;28;20441;-69
2021/07/25 00:05:27;;;;;;;12.57;8.50;;;;;;;;;;5075527;28;20373;-69
2021/07/25 00:07:53;;;;;;;9.90;8.32;;;;;;;;;;5075411;28;20028;-69
2021/07/25 00:10:19;;;;;;;12.35;8.80;;;;;;;;;;5075631;28;20087;-69
2021/07/25 00:12:45;;;;;;;12.35;9.05;;;26.10;76.70;;;;;;5075223;28;20012;-69
2021/07/25 00:15:11;;;;;;;13.73;8.50;;;26.20;77.20;;;;;;5075505;28;20016;-69
2021/07/25 00:17:37;;;;;;;14.48;8.65;;;26.20;76.50;;;;;;5075520;28;20099;-70
2021/07/25 00:20:03;;;;;;;12.88;9.25;;;26.20;76.90;;;;;;5075078;28;20021;-69
2021/07/25 00:22:28;;;;;;;13.05;8.55;;;26.20;76.30;;;;;;5075430;28;20047;-69
2021/07/25 00:25:42;;;;;;;13.55;8.75;;;26.10;74.80;;;;;;5074789;28;20036;-69
2021/07/25 00:27:41;;;;;;;14.40;9.75;;;26.10;74.50;;;;;;5070854;28;20048;-70
2021/07/25 00:30:16;;;;;;;10.82;8.60;;;26.00;73.80;;;;;;5075289;28;20024;-69
2021/07/25 00:32:42;;;;;;;10.85;8.57;;;26.10;75.00;;;;;;5075126;28;20043;-70
2021/07/25 00:35:09;;;;;;;10.25;8.73;;;26.00;73.30;;;;;;5074820;28;20035;-69
2021/07/25 00:37:35;;;;;;;11.65;8.75;;;26.00;70.00;;;;;;5074895;28;20035;-69
2021/07/25 00:40:01;;;;;;;11.10;8.50;;;26.00;67.30;;;;;;5074981;28;20476;-69
2021/07/25 00:42:39;;;;;;;15.90;8.68;;;26.00;67.90;;;;;;5074823;28;20028;-69
2021/07/25 00:45:06;;;;;;;9.95;8.75;;;26.00;69.60;;;;;;5074890;28;20021;-69
2021/07/25 00:47:37;;;;;;;13.05;8.85;;;26.00;70.40;;;;;;5074626;28;20033;-69
2021/07/25 00:50:03;;;;;;;11.88;8.63;;;26.00;71.20;;;;;;5074814;28;20369;-69
2021/07/25 00:52:31;;;;;;;9.73;8.55;;;26.00;71.50;;;;;;5074452;28;20058;-69
2021/07/25 00:54:59;;;;;;;13.98;8.57;;;25.90;68.90;;;;;;5074414;28;20029;-69
2021/07/25 00:57:24;;;;;;;13.68;8.32;;;25.90;69.00;;;;;;5074437;28;20357;-70
2021/07/25 00:59:50;;;;;;;11.05;9.40;;;25.90;70.90;;;;;;5071031;28;20062;-69
2021/07/25 01:02:15;;;;;;;14.18;8.70;;;25.90;64.80;;;;;;5071317;28;20392;-69
2021/07/25 01:05:09;;;;;;;11.30;8.95;;;25.90;63.10;;;;;;5072705;28;20373;-69
2021/07/25 01:07:43;;;;;;;11.15;9.40;;;25.90;68.30;;;;;;5074202;28;20032;-69
2021/07/25 01:10:29;;;;;;;14.13;8.48;;;25.90;69.30;;;;;;5074024;28;20035;-69
2021/07/25 01:13:07;;;;;;;11.40;8.80;;;25.90;73.40;;;;;;5073812;28;20086;-69
2021/07/25 01:15:34;;;;;;;15.27;8.88;;;25.90;75.80;;;;;;5074141;28;20031;-69
2021/07/25 01:17:59;;;;;;;11.32;9.05;;;25.80;72.30;;;;;;5074109;28;20025;-69
2021/07/25 01:20:26;;;;;;;13.27;9.40;;;25.90;69.70;;;;;;5073875;28;20435;-69
2021/07/25 01:22:54;;;;;;;12.55;8.75;;;25.80;69.00;;;;;;5072665;28;20025;-69
2021/07/25 01:25:23;;;;;;;17.30;9.30;;;25.80;69.30;;;;;;5073436;28;20051;-69
2021/07/25 01:27:53;;;;;;;15.30;10.13;;;25.80;65.40;;;;;;5073516;28;20790;-69
2021/07/25 01:30:22;;;;;;;13.25;9.55;;;25.80;63.00;;;;;;5073846;28;20719;-69
2021/07/25 01:32:51;;;;;;;10.63;9.52;;;25.80;64.60;;;;;;5073924;28;20020;-69
2021/07/25 01:35:17;;;;;;;10.20;8.57;;;25.70;69.00;;;;;;5073546;28;20413;-69
2021/07/25 01:37:44;;;;;;;9.68;8.05;;;25.80;71.50;;;;;;5073640;28;20055;-70
2021/07/25 01:40:15;;;;;;;12.35;8.10;;;25.70;71.20;;;;;;5073596;28;20025;-69
2021/07/25 01:42:41;;;;;;;14.13;8.57;;;25.70;71.90;;;;;;5073599;28;20048;-69
2021/07/25 01:45:08;;;;;;;9.73;8.55;;;25.70;70.30;;;;;;5073650;28;20017;-69
2021/07/25 01:47:34;;;;;;;9.90;8.35;;;25.60;69.90;;;;;;5073554;28;20048;-69
2021/07/25 01:50:00;;;;;;;13.98;8.70;;;25.70;70.60;;;;;;5073321;28;20056;-69
2021/07/25 01:52:26;;;;;;;9.52;8.57;;;25.70;72.70;;;;;;5073449;28;20068;-69
2021/07/25 01:54:52;;;;;;;9.18;8.25;;;;;;;;;;5073342;28;20020;-69
2021/07/25 01:57:18;;;;;;;12.30;8.50;;;;;;;;;;5073159;28;20033;-69
2021/07/25 01:59:44;;;;;;;16.27;7.82;;;;;;;;;;5073002;28;20052;-69
2021/07/25 02:02:10;;;;;;;13.80;8.23;;;;;;;;;;5073139;28;20039;-69
2021/07/25 02:04:36;;;;;;;13.60;9.70;;;;;;;;;;5073327;28;20020;-69
2021/07/25 02:07:02;;;;;;;14.27;9.35;;;;;;;;;;5073812;28;20052;-69
2021/07/25 02:09:28;;;;;;;11.95;9.48;;;25.40;87.20;;;;;;5073255;28;20060;-69
2021/07/25 02:11:54;;;;;;;14.07;9.25;;;25.40;80.20;;;;;;5073144;28;20051;-69
2021/07/25 02:14:20;;;;;;;18.10;10.35;;;;;;;;;;5072648;28;20483;-69
2021/07/25 02:16:46;;;;;;;10.23;9.18;;;25.30;74.30;;;;;;5073255;28;20024;-69
2021/07/25 02:19:11;;;;;;;10.77;9.68;;;25.30;73.30;;;;;;5073033;28;20035;-69
2021/07/25 02:21:37;;;;;;;12.73;9.43;;;25.30;79.00;;;;;;5072823;28;20028;-69
2021/07/25 02:24:03;;;;;;;12.05;8.88;;;25.10;63.90;;;;;;5073155;28;20028;-69
2021/07/25 02:26:28;;;;;;;14.18;9.63;;;25.20;81.10;;;;;;5072442;28;20057;-69
2021/07/25 02:28:54;;;;;;;16.75;9.25;;;25.20;75.20;;;;;;5072700;28;20120;-69
2021/07/25 02:31:20;;;;;;;10.82;9.00;;;25.20;75.60;;;;;;5073123;28;20025;-69
2021/07/25 02:33:45;;;;;;;10.20;8.57;;;25.10;63.50;;;;;;5072824;28;20031;-68
2021/07/25 02:36:11;;;;;;;11.02;8.98;;;25.10;66.90;;;;;;5072899;28;20028;-69
2021/07/25 02:38:37;;;;;;;9.38;7.90;;;25.00;63.20;;;;;;5072815;28;20036;-69
2021/07/25 02:41:02;;;;;;;14.40;8.98;;;25.00;63.10;;;;;;5072592;28;20024;-69
2021/07/25 02:43:28;;;;;;;12.35;8.75;;;25.00;63.00;;;;;;5072438;28;20556;-69
2021/07/25 02:45:54;;;;;;;14.02;9.18;;;25.10;63.00;;;;;;5072424;28;20481;-69
2021/07/25 02:48:19;;;;;;;13.57;9.18;;;25.00;62.80;;;;;;5073398;28;20468;-69
2021/07/25 02:50:45;;;;;;;10.60;9.35;;;24.90;62.60;;;;;;5072490;28;20020;-69
2021/07/25 02:53:11;;;;;;;12.20;10.20;;;;;;;;;;5072969;28;20055;-68
2021/07/25 02:55:37;;;;;;;12.30;9.13;;;25.00;89.50;;;;;;5072530;28;20036;-68
2021/07/25 02:58:02;;;;;;;11.60;8.75;;;25.00;74.10;;;;;;5073017;28;20029;-69
2021/07/25 03:00:28;;;;;;;14.98;9.45;;;24.80;63.80;;;;;;5072492;28;20024;-69
2021/07/25 03:02:56;;;;;;;13.32;9.80;;;24.90;69.00;;;;;;5072775;28;20021;-69
2021/07/25 03:05:22;;;;;;;12.77;8.75;;;24.80;68.80;;;;;;5072578;28;20028;-69
2021/07/25 03:07:48;;;;;;;11.82;8.10;;;24.80;63.80;;;;;;5072549;28;20068;-69
2021/07/25 03:10:14;;;;;;;9.38;8.40;;;24.70;63.00;;;;;;5072675;28;20119;-69
2021/07/25 03:12:39;;;;;;;12.45;8.18;;;24.80;67.40;;;;;;5072871;28;20089;-68
2021/07/25 03:15:06;;;;;;;13.30;7.85;;;24.80;75.50;;;;;;5072361;28;20461;-69
2021/07/25 03:17:31;;;;;;;9.98;7.40;;;24.80;64.60;;;;;;5072528;28;20039;-68
2021/07/25 03:19:57;;;;;;;9.43;8.02;;;24.80;66.70;;;;;;5072715;28;20020;-68
2021/07/25 03:22:23;;;;;;;10.20;8.55;;;24.80;65.30;;;;;;5072558;28;20108;-68
2021/07/25 03:24:49;;;;;;;13.65;8.45;;;24.70;62.10;;;;;;5072493;28;20033;-69
2021/07/25 03:27:15;;;;;;;8.85;7.75;;;24.70;63.40;;;;;;5076105;28;20036;-69
2021/07/25 03:29:40;;;;;;;13.20;8.18;;;24.70;62.80;;;;;;5076103;28;20017;-69
2021/07/25 03:32:06;;;;;;;11.93;8.52;;;24.60;62.60;;;;;;5076244;28;20100;-68
2021/07/25 03:34:33;;;;;;;10.57;8.90;;;24.60;63.10;;;;;;5076334;28;20736;-69
2021/07/25 03:37:02;;;;;;;11.48;8.50;;;24.60;63.50;;;;;;5074721;28;20032;-69
2021/07/25 03:39:29;;;;;;;10.13;8.98;;;24.60;63.40;;;;;;5076449;28;20040;-68
2021/07/25 03:41:55;;;;;;;13.60;8.40;;;24.60;63.60;;;;;;5075997;28;20107;-68
2021/07/25 03:44:21;;;;;;;10.98;8.65;;;24.60;63.50;;;;;;5075959;28;20426;-68
2021/07/25 03:46:47;;;;;;;13.73;8.38;;;24.50;63.60;;;;;;5075857;28;20055;-69
2021/07/25 03:49:13;;;;;;;13.43;9.15;;;24.60;63.80;;;;;;5075930;28;20086;-69
2021/07/25 03:51:38;;;;;;;11.35;9.02;;;24.60;63.80;;;;;;5075665;28;20086;-68
2021/07/25 03:54:05;;;;;;;10.55;8.85;;;24.60;63.80;;;;;;5075511;28;20025;-69
2021/07/25 03:56:32;;;;;;;11.43;8.15;;;24.50;63.00;;;;;;5075703;28;20469;-69
2021/07/25 03:58:57;;;;;;;10.07;7.93;;;24.50;63.30;;;;;;5075663;28;20024;-69
2021/07/25 04:01:23;;;;;;;9.75;7.28;;;24.50;63.20;;;;;;5075711;28;20024;-68
2021/07/25 04:03:49;;;;;;;12.32;8.23;;;24.50;63.10;;;;;;5075772;28;20017;-69
2021/07/25 04:06:14;;;;;;;12.82;8.15;;;24.50;63.00;;;;;;5075738;28;20016;-69
2021/07/25 04:08:40;;;;;;;12.80;7.40;;;24.50;63.10;;;;;;5075786;28;20029;-69
2021/07/25 04:11:06;;;;;;;12.32;7.53;;;24.50;62.60;;;;;;5075751;28;20028;-69
2021/07/25 04:13:32;;;;;;;15.57;7.68;;;24.50;62.20;;;;;;5075447;28;20074;-69
2021/07/25 04:15:57;;;;;;;9.02;7.20;;;24.50;63.00;;;;;;5075470;28;20473;-69
2021/07/25 04:18:23;;;;;;;11.48;7.80;;;24.50;62.30;;;;;;5075094;28;20419;-68
2021/07/25 04:20:49;;;;;;;9.45;7.82;;;24.50;62.30;;;;;;5075678;28;20024;-69
2021/07/25 04:23:14;;;;;;;11.85;7.25;;;24.50;62.70;;;;;;5075346;28;20146;-68
2021/07/25 04:25:40;;;;;;;10.63;7.60;;;24.60;62.90;;;;;;5075023;28;20052;-68
2021/07/25 04:28:06;;;;;;;16.40;8.90;;;24.60;62.80;;;;;;5075152;28;20033;-69
2021/07/25 04:30:33;;;;;;;12.88;7.47;;;24.60;62.70;;;;;;5074951;28;20021;-68
2021/07/25 04:33:01;;;;;;;12.35;8.43;;;24.60;63.10;;;;;;5075108;28;20024;-68
2021/07/25 04:35:27;;;;;;;10.23;8.38;;;24.60;63.20;;;;;;5074781;28;20021;-67
2021/07/25 04:37:54;;;;;;;14.02;8.88;;;24.60;63.20;;;;;;5075145;28;20100;-67
2021/07/25 04:40:22;;;;;;;11.15;7.80;;;24.70;63.30;;;;;;5074889;28;20107;-68
2021/07/25 04:42:51;;;;;;;9.57;8.55;;;24.70;63.70;;;;;;5074803;28;20024;-67
2021/07/25 04:45:29;;;;;;;10.80;7.53;;;24.60;63.50;;;;;;5074990;28;20028;-67
2021/07/25 04:48:19;;;;;;;9.40;8.15;;;24.60;63.60;;;;;;5074869;28;20029;-67
2021/07/25 04:50:48;;;;;;;9.60;8.65;;;24.60;63.90;;;;;;5074684;28;20024;-68
2021/07/25 04:53:23;;;;;;;17.00;8.32;;;24.60;64.10;;;;;;5074601;28;20032;-68
2021/07/25 04:55:57;;;;;;;10.88;8.23;;;24.60;63.90;;;;;;5073509;28;20024;-69
2021/07/25 04:58:40;;;;;;;12.60;8.70;;;24.60;63.90;;;;;;5074020;28;20036;-68
2021/07/25 05:01:07;;;;;;;9.32;8.15;;;24.60;63.90;;;;;;5071589;28;20032;-69
2021/07/25 05:03:33;;;;;;;13.25;8.00;;;24.60;63.80;;;;;;5073025;28;20112;-69
2021/07/25 05:06:00;;;;;;;11.57;8.50;;;24.60;64.10;;;;;;5074062;28;20039;-67
2021/07/25 05:08:26;;;;;;;13.07;7.93;;;24.60;64.10;;;;;;5073856;28;20063;-67
2021/07/25 05:11:17;;;;;;;9.95;7.63;;;24.60;64.20;;;;;;5074313;28;20392;-67
2021/07/25 05:13:46;;;;;;;10.23;8.00;;;24.60;64.80;;;;;;5073546;28;20190;-66
2021/07/25 05:16:22;;;;;;;9.75;7.47;;;24.70;64.70;;;;;;5072667;28;20297;-68
2021/07/25 05:19:04;;;;;;;11.27;7.70;;;24.70;64.40;;;;;;5069916;28;20044;-68
2021/07/25 05:21:37;;;;;;;10.65;8.15;;;24.70;64.00;;;;;;5070298;28;20032;-67
2021/07/25 05:24:05;;;;;;;16.05;8.38;;;24.80;63.90;;;;;;5070267;28;20112;-68
2021/07/25 05:26:34;;;;;;;10.77;7.50;;;24.80;63.30;;;;;;5073123;28;20076;-67
2021/07/25 05:29:01;;;;;;;12.60;6.90;;;24.90;62.60;;;;;;5074137;28;20028;-68
2021/07/25 05:31:31;;;;;;;9.50;7.57;;;24.90;62.50;;;;;;5073962;28;20025;-69
2021/07/25 05:33:58;;;;;;;9.82;7.20;;;24.90;62.40;;;;;;5074011;28;20031;-67
2021/07/25 05:36:23;;;;;;;8.60;7.05;;;25.00;62.30;;;;;;5073865;28;20419;-67
2021/07/25 05:38:49;;;;;;;11.10;7.35;;;25.00;62.20;;;;;;5073813;28;20017;-68
2021/07/25 05:41:15;;;;;;;9.43;7.13;;;25.00;62.00;;;;;;5073562;28;20070;-67
2021/07/25 05:43:40;;;;;;;12.10;6.88;;;25.10;61.60;;;;;;5073563;28;20028;-67
2021/07/25 05:46:06;;;;;;;12.13;7.90;;;25.10;61.20;;;;;;5073371;28;20416;-67
2021/07/25 05:48:32;;;;;;;14.18;7.57;;;25.20;61.00;;;;;;5071895;28;20097;-67
2021/07/25 05:51:02;;;;;;;10.48;7.60;;;25.20;60.50;;;;;;5071835;28;20020;-67
2021/07/25 05:53:28;;;;;;;11.57;7.15;;;25.30;60.10;;;;;;5072124;28;20051;-67
2021/07/25 05:55:54;;;;;;;12.13;7.40;;;25.30;59.90;;;;;;5070820;28;20035;-67
2021/07/25 05:58:19;;;;;;;10.85;7.25;;;25.40;60.00;;;;;;5072980;28;20020;-67
2021/07/25 06:00:45;;;;;;;9.60;7.07;;;25.40;59.90;;;;;;5073489;28;20492;-67
2021/07/25 06:03:12;;;;;;;10.40;7.10;;;25.40;59.80;;;;;;5073639;28;20028;-67
2021/07/25 06:05:38;;;;;;;13.80;7.25;;;25.50;59.90;;;;;;5073414;28;20137;-67
2021/07/25 06:08:07;;;;;;;9.90;6.85;;;25.50;59.80;;;;;;5073395;28;20576;-67
2021/07/25 06:10:34;;;;;;;10.27;7.18;;;25.60;59.90;;;;;;5071911;28;20052;-67
2021/07/25 06:13:03;;;;;;;9.57;7.25;;;25.60;60.10;;;;;;5073385;28;20043;-67
2021/07/25 06:15:30;;;;;;;10.75;7.10;;;25.60;59.90;;;;;;5071992;28;20029;-67
2021/07/25 06:17:56;;;;;;;9.43;7.25;;;25.60;59.90;;;;;;5073446;28;20432;-67
2021/07/25 06:20:22;;;;;;;9.95;7.15;;;25.70;60.00;;;;;;5073145;28;20056;-67
2021/07/25 06:22:53;;;;;;;11.50;7.20;;;25.70;60.00;;;;;;5073123;28;20020;-67
2021/07/25 06:25:21;;;;;;;13.13;6.90;;;25.80;60.00;;;;;;5072838;28;20572;-67
2021/07/25 06:27:53;;;;;;;9.90;6.78;;;25.80;60.10;;;;;;5073127;28;20091;-67
2021/07/25 06:30:22;;;;;;;10.90;7.32;;;25.90;59.90;;;;;;5073248;28;20023;-67
2021/07/25 06:33:01;;;;;;;15.13;6.65;;;25.90;59.90;;;;;;5073391;28;20062;-67
2021/07/25 06:35:32;;;;;;;14.80;7.10;;;25.90;59.80;;;;;;5073226;28;20024;-67
2021/07/25 06:38:03;;;;;;;13.98;7.07;;;26.00;59.90;;;;;;5073098;28;20031;-67
2021/07/25 06:40:29;;;;;;;9.77;6.35;;;26.10;59.60;;;;;;5073412;28;20020;-68
2021/07/25 06:42:57;;;;;;;8.35;6.80;;;26.10;59.30;;;;;;5073094;28;20027;-67
2021/07/25 06:45:24;;;;;;;9.18;6.65;;;26.10;59.20;;;;;;5073634;28;20423;-67
2021/07/25 06:47:51;;;;;;;10.82;7.00;;;26.20;59.00;;;;;;5073053;28;20036;-67
2021/07/25 06:50:18;;;;;;;9.85;6.68;;;26.20;59.00;;;;;;5072956;28;20103;-67
2021/07/25 06:52:44;;;;;;;10.40;6.47;;;26.20;58.90;;;;;;5073068;28;20028;-68
2021/07/25 06:55:11;;;;;;;8.30;6.57;;;26.40;58.90;;;;;;5072896;28;20028;-67
2021/07/25 06:57:37;;;;;;;14.75;6.88;;;26.40;58.30;;;;;;5073078;28;20032;-67
2021/07/25 07:00:04;;;;;;;8.25;6.50;;;26.40;58.50;;;;;;5073924;28;20492;-68
2021/07/25 07:02:45;;;;;;;12.32;6.68;;;26.50;58.80;;;;;;5076789;28;20071;-68
2021/07/25 07:05:11;;;;;;;14.50;6.93;;;26.50;58.90;;;;;;5076898;28;20013;-68
2021/07/25 07:07:37;;;;;;;12.30;6.47;;;26.60;58.70;;;;;;5076825;28;20039;-67
2021/07/25 07:10:03;;;;;;;9.50;6.97;;;26.60;58.60;;;;;;5076902;28;20108;-67
2021/07/25 07:12:28;;;;;;;11.07;6.38;;;26.70;58.80;;;;;;5076452;28;20048;-67
2021/07/25 07:14:54;;;;;;;14.55;6.35;;;26.70;58.80;;;;;;5076622;28;20020;-67
2021/07/25 07:17:22;;;;;;;12.70;6.40;;;26.80;60.10;;;;;;5076614;28;20590;-68
2021/07/25 07:19:48;;;;;;;11.60;7.07;;;26.90;61.80;;;;;;5076580;28;20376;-67
2021/07/25 07:22:27;;;;;;;11.45;6.15;;;26.80;57.90;;;;;;5076671;28;20484;-67
2021/07/25 07:24:54;;;;;;;8.65;6.50;;;26.90;58.20;;;;;;5076206;28;20135;-68
2021/07/25 07:27:20;;;;;;;9.65;6.20;;;27.00;58.30;;;;;;5076662;28;20131;-67
2021/07/25 07:29:46;;;;;;;8.50;6.35;;;27.00;58.10;;;;;;5076415;28;20103;-67
2021/07/25 07:32:12;;;;;;;14.52;6.28;;;27.10;58.00;;;;;;5076619;28;20115;-68
2021/07/25 07:34:37;;;;;;;13.07;6.25;;;27.10;57.50;;;;;;5076538;28;20394;-67
2021/07/25 07:37:04;;;;;;;7.80;5.95;;;27.20;57.60;;;;;;5075966;28;20020;-68
2021/07/25 07:39:30;;;;;;;9.27;5.72;;;27.20;57.10;;;;;;5076459;28;20055;-68
2021/07/25 07:41:56;;;;;;;8.75;6.20;;;27.30;57.00;;;;;;5076314;28;20024;-68
2021/07/25 07:44:23;;;;;;;12.70;6.70;;;27.40;56.60;;;;;;5076119;28;20016;-67
2021/07/25 07:46:49;;;;;;;10.77;6.20;;;27.40;56.20;;;;;;5076104;28;20036;-67
2021/07/25 07:49:14;;;;;;;11.10;6.30;;;27.50;55.90;;;;;;5075813;28;20392;-68
2021/07/25 07:51:40;;;;;;;10.48;6.35;;;27.60;55.80;;;;;;5075987;28;20020;-67
2021/07/25 07:54:06;;;;;;;14.45;6.00;;;27.60;55.30;;;;;;5076003;28;20479;-67
2021/07/25 07:56:35;;;;;;;8.82;5.85;;;27.70;54.90;;;;;;5076012;28;20020;-68
2021/07/25 07:59:01;;;;;;;12.77;6.38;;;27.80;54.40;;;;;;5075928;28;20031;-68
2021/07/25 08:01:27;;;;;;;10.90;6.00;;;27.80;54.50;;;;;;5075622;28;20377;-67
2021/07/25 08:03:53;;;;;;;10.60;5.93;;;27.90;53.60;;;;;;5075560;28;20036;-67
2021/07/25 08:06:18;;;;;;;9.05;6.05;;;27.90;53.60;;;;;;5075580;28;20048;-68
2021/07/25 08:08:44;;;;;;;11.68;6.47;;;28.00;54.30;;;;;;5075540;28;20047;-67
2021/07/25 08:11:10;;;;;;;14.20;5.82;;;28.00;54.60;;;;;;5074589;28;20029;-67
2021/07/25 08:13:35;;;;;;;10.88;5.80;;;28.20;53.90;;;;;;5075443;28;20021;-67
2021/07/25 08:16:01;;;;;;;11.10;6.15;;;28.20;53.90;;;;;;5075506;28;20023;-67
2021/07/25 08:18:27;;;;;;;9.15;5.25;;;28.30;53.40;;;;;;5075406;28;20495;-68
2021/07/25 08:20:52;;;;;;;8.65;5.90;;;28.30;52.50;;;;;;5075535;28;20017;-68
2021/07/25 08:23:18;;;;;;;9.43;5.88;;;28.40;53.10;;;;;;5075395;28;20047;-67
2021/07/25 08:25:44;;;;;;;8.65;5.20;;;28.40;52.60;;;;;;5075241;28;20051;-67
2021/07/25 08:28:10;;;;;;;14.05;5.50;;;28.50;52.10;;;;;;5075113;28;20115;-67
2021/07/25 08:30:35;;;;;;;9.93;6.00;;;28.50;52.10;;;;;;5075154;28;20025;-68
2021/07/25 08:33:01;;;;;;;12.68;6.07;;;28.60;52.10;;;;;;5075287;28;20025;-67
2021/07/25 08:35:27;;;;;;;14.00;6.00;;;28.70;51.90;;;;;;5075137;28;20035;-68
2021/07/25 08:37:53;;;;;;;12.95;5.68;;;28.70;51.00;;;;;;5075188;28;20028;-68
2021/07/25 08:40:21;;;;;;;9.02;5.72;;;28.80;49.80;;;;;;5074785;28;20358;-68
2021/07/25 08:43:01;;;;;;;9.00;6.13;;;28.80;50.00;;;;;;5075066;28;20482;-68
2021/07/25 08:45:27;;;;;;;11.38;5.60;;;28.90;50.10;;;;;;5075031;28;20024;-68
2021/07/25 08:48:10;;;;;;;8.55;5.50;;;28.90;47.90;;;;;;5074912;28;20036;-68
2021/07/25 08:50:43;;;;;;;8.00;5.90;;;29.00;48.20;;;;;;5074688;28;20020;-68
2021/07/25 08:53:15;;;;;;;13.98;5.55;;;29.00;47.70;;;;;;5073282;28;20025;-68
2021/07/25 08:55:41;;;;;;;9.95;5.90;;;29.10;48.40;;;;;;5074582;28;20028;-68
2021/07/25 08:58:07;;;;;;;9.82;5.70;;;29.20;47.80;;;;;;5074846;28;20025;-68
2021/07/25 09:00:34;;;;;;;10.60;6.32;;;29.20;47.20;;;;;;5074475;28;20381;-68
2021/07/25 09:03:04;;;;;;;9.50;5.90;;;29.30;46.70;;;;;;5074815;28;20025;-68
2021/07/25 09:05:30;;;;;;;7.57;5.25;;;29.30;46.50;;;;;;5074466;28;20029;-68
2021/07/25 09:07:57;;;;;;;9.90;5.97;;;29.30;47.00;;;;;;5074564;28;20098;-68
2021/07/25 09:10:24;;;;;;;8.45;5.38;;;29.30;46.20;;;;;;5073831;28;20047;-68
2021/07/25 09:12:51;;;;;;;9.38;5.38;;;29.30;46.20;;;;;;5073252;28;20033;-69
2021/07/25 09:15:20;;;;;;;7.88;5.53;;;29.30;46.20;;;;;;5073197;28;20033;-69
2021/07/25 09:17:49;;;;;;;10.88;5.65;;;29.30;46.40;;;;;;5073475;28;20020;-68
2021/07/25 09:20:16;;;;;;;10.60;5.57;;;29.30;45.80;;;;;;5072325;28;20389;-68
2021/07/25 09:22:48;;;;;;;9.90;5.25;;;29.30;46.20;;;;;;5073356;28;20028;-68
2021/07/25 09:25:20;;;;;;;10.38;5.78;;;29.30;46.10;;;;;;5073237;28;20040;-69
2021/07/25 09:27:46;;;;;;;11.32;5.28;;;29.30;46.10;;;;;;5073712;28;20085;-68
2021/07/25 09:30:17;;;;;;;11.55;6.10;;;29.20;46.60;;;;;;5073747;28;20024;-68
2021/07/25 09:32:43;;;;;;;10.27;5.27;;;29.30;46.30;;;;;;5073638;28;20029;-68
2021/07/25 09:35:24;;;;;;;11.07;6.15;;;29.30;46.70;;;;;;5073549;28;20013;-68
2021/07/25 09:37:51;;;;;;;10.93;6.03;;;29.20;47.10;;;;;;5073891;28;20576;-68
2021/07/25 09:40:27;;;;;;;10.98;5.97;;;29.20;47.80;;;;;;5073889;28;20074;-68
2021/07/25 09:43:25;;;;;;;10.30;6.38;;;29.20;46.60;;;;;;5073480;28;20026;-68
2021/07/25 09:45:53;;;;;;;7.40;5.22;;;29.20;46.90;;;;;;5073660;28;20024;-68
2021/07/25 09:48:22;;;;;;;15.77;6.28;;;29.30;47.90;;;;;;5073457;28;20737;-68
2021/07/25 09:50:49;;;;;;;9.65;5.65;;;29.30;47.70;;;;;;5073406;28;20389;-68
2021/07/25 09:53:16;;;;;;;10.80;5.38;;;29.40;46.80;;;;;;5073471;28;20528;-68
2021/07/25 09:55:41;;;;;;;10.45;5.32;;;29.40;47.30;;;;;;5073310;28;20025;-68
2021/07/25 09:58:07;;;;;;;9.73;5.50;;;29.50;47.60;;;;;;5073281;28;20158;-67
2021/07/25 10:00:46;;;;;;;10.45;5.80;;;29.70;46.80;;;;;;5073483;28;20081;-67
2021/07/25 10:03:17;;;;;;;8.15;5.53;;;29.70;46.50;;;;;;5070361;28;20551;-68
2021/07/25 10:05:46;;;;;;;;;;;29.80;46.40;;;;;;5071111;28;20021;-68
2021/07/25 10:08:16;;;;;;;13.07;5.47;;;29.90;47.10;;;;;;5071375;28;20276;-67
2021/07/25 10:10:45;;;;;;;14.55;5.57;;;30.00;47.30;;;;;;5072835;28;20024;-68
2021/07/25 10:13:16;;;;;;;10.20;5.90;;;30.00;46.70;;;;;;5072822;28;20031;-68
2021/07/25 10:15:46;;;;;;;8.98;5.15;;;30.10;45.70;;;;;;5071757;28;20431;-67
2021/07/25 10:18:13;;;;;;;7.30;5.65;;;30.20;46.20;;;;;;5065717;28;20022;-67
2021/07/25 10:20:39;;;;;;;6.80;5.20;;;30.30;46.60;;;;;;5062534;28;20033;-67
2021/07/25 10:23:07;;;;;;;12.10;5.72;;;30.40;46.60;;;;;;5072990;28;20430;-67
2021/07/25 10:25:35;;;;;;;13.45;5.38;;;30.40;46.40;;;;;;5071841;28;20499;-67
2021/07/25 10:28:02;;;;;;;12.23;5.90;;;30.40;45.60;;;;;;5066103;28;20095;-68
2021/07/25 10:30:27;;;;;;;9.98;6.18;;;30.50;45.70;;;;;;5059721;28;20032;-67
2021/07/25 10:32:56;;;;;;;16.83;6.00;;;30.50;45.60;;;;;;5066609;28;20016;-68
2021/07/25 10:35:23;;;;;;;10.75;5.78;;;30.40;45.60;;;;;;5056544;28;20067;-67
2021/07/25 10:37:51;;;;;;;7.57;5.28;;;30.50;45.60;;;;;;5058231;28;20021;-67
2021/07/25 10:40:17;;;;;;;10.30;5.70;;;30.50;45.70;;;;;;5063994;28;20046;-67
2021/07/25 10:42:50;;;;;;;11.45;5.78;;;30.60;45.80;;;;;;5069841;28;20027;-68
2021/07/25 10:45:16;;;;;;;8.95;6.15;;;30.60;45.40;;;;;;5070318;28;20086;-68
2021/07/25 10:47:46;;;;;;;10.02;5.85;;;30.70;46.20;;;;;;5070306;28;20032;-68
2021/07/25 10:50:19;;;;;;;9.35;5.97;;;30.70;46.40;;;;;;5068932;28;20104;-67
2021/07/25 10:52:57;;;;;;;9.93;5.50;;;30.80;45.40;;;;;;5069586;28;20031;-67
2021/07/25 10:55:35;;;;;;;10.05;6.47;;;30.80;45.70;;;;;;5071114;28;20016;-67
2021/07/25 10:58:02;;;;;;;9.20;6.00;;;30.90;45.00;;;;;;5072693;28;20032;-67
2021/07/25 11:00:40;;;;;;;13.90;6.88;;;30.90;44.80;;;;;;5073140;28;20024;-67
2021/07/25 11:03:06;;;;;;;11.35;6.38;;;30.90;44.40;;;;;;5072772;28;20032;-69
2021/07/25 11:05:32;;;;;;;9.07;6.40;;;31.00;44.30;;;;;;5072018;28;20049;-67
2021/07/25 11:07:59;;;;;;;10.20;5.65;;;31.00;44.50;;;;;;5072425;28;20040;-67
2021/07/25 11:10:33;;;;;;;9.05;6.03;;;31.00;44.40;;;;;;5071972;28;20021;-67
2021/07/25 11:12:58;;;;;;;9.55;6.65;;;31.10;44.90;;;;;;5072855;28;20021;-67
2021/07/25 11:15:32;;;;;;;11.57;6.03;;;31.10;44.10;;;;;;5072454;28;20487;-67
2021/07/25 11:18:09;;;;;;;11.40;6.75;;;31.10;44.20;;;;;;5072167;28;20066;-67
2021/07/25 11:20:58;;;;;;;11.05;6.07;;;31.10;44.10;;;;;;5063423;28;20021;-68
2021/07/25 11:23:24;;;;;;;11.18;6.38;;;31.10;44.70;;;;;;5056193;28;20024;-67
2021/07/25 11:25:51;;;;;;;11.02;6.28;;;31.20;45.70;;;;;;5070674;28;20430;-67
2021/07/25 11:28:39;;;;;;;13.05;6.18;;;31.20;44.80;;;;;;5072300;28;20029;-69
2021/07/25 11:31:09;;;;;;;11.90;6.72;;;31.30;45.20;;;;;;5072345;28;20052;-68
2021/07/25 11:33:40;;;;;;;11.75;6.35;;;31.40;44.10;;;;;;5072313;28;20053;-67
2021/07/25 11:36:23;;;;;;;9.00;6.35;;;31.40;43.80;;;;;;5072637;28;20434;-68
2021/07/25 11:38:55;;;;;;;11.63;6.55;;;31.40;43.70;;;;;;5072570;28;20032;-67
2021/07/25 11:41:23;;;;;;;10.27;5.88;;;31.40;43.90;;;;;;5072175;28;20035;-67
2021/07/25 11:43:52;;;;;;;9.52;6.57;;;31.50;44.60;;;;;;5072126;28;20020;-68
2021/07/25 11:46:40;;;;;;;14.57;6.63;;;31.50;43.70;;;;;;5073342;28;20552;-68
2021/07/25 11:49:20;;;;;;;10.25;6.85;;;31.50;44.20;;;;;;5075645;28;20040;-68
2021/07/25 11:51:58;;;;;;;11.10;6.45;;;31.50;44.80;;;;;;5075529;28;20021;-67
2021/07/25 11:54:29;;;;;;;12.88;7.22;;;31.50;44.10;;;;;;5062232;28;20084;-68
2021/07/25 11:56:58;;;;;;;12.18;5.90;;;31.50;44.50;;;;;;5054950;28;20040;-68
2021/07/25 11:59:24;;;;;;;7.78;6.20;;;31.50;44.20;;;;;;5054766;28;20088;-68
2021/07/25 12:01:50;;;;;;;12.23;7.05;;;31.60;43.90;;;;;;5052265;28;20428;-68
2021/07/25 12:04:40;;;;;;;13.32;6.65;;;31.60;43.50;;;;;;5051857;28;20082;-68
2021/07/25 12:07:07;;;;;;;14.30;6.22;;;31.40;44.00;;;;;;5053135;28;20048;-68
2021/07/25 12:09:34;;;;;;;11.27;6.50;;;31.40;44.30;;;;;;5055257;28;20025;-68
2021/07/25 12:12:12;;;;;;;11.38;6.43;;;31.40;43.90;;;;;;5055124;28;20053;-68
2021/07/25 12:14:40;;;;;;;11.23;6.75;;;31.30;44.80;;;;;;5050445;28;20029;-68
2021/07/25 12:17:06;;;;;;;9.65;6.07;;;31.30;45.20;;;;;;5052293;28;20036;-68
2021/07/25 12:19:37;;;;;;;12.27;6.15;;;31.30;45.00;;;;;;5052958;28;20025;-68
2021/07/25 12:22:04;;;;;;;15.55;6.18;;;31.20;46.00;;;;;;5054651;28;20116;-68
2021/07/25 12:24:32;;;;;;;9.48;6.90;;;31.20;45.30;;;;;;5053944;28;20024;-68
2021/07/25 12:27:00;;;;;;;9.07;6.57;;;31.20;45.50;;;;;;5053951;28;20071;-68
2021/07/25 12:29:42;;;;;;;12.38;6.57;;;31.20;45.80;;;;;;5054437;28;20056;-68
2021/07/25 12:32:29;;;;;;;11.52;6.38;;;31.20;46.50;;;;;;5054866;28;20017;-68
2021/07/25 12:35:16;;;;;;;9.65;5.88;;;31.10;46.50;;;;;;5054691;28;20370;-68
2021/07/25 12:37:45;;;;;;;23.35;8.10;;;31.10;46.60;;;;;;5053745;28;20025;-67
2021/07/25 12:40:23;;;;;;;14.40;8.07;;;31.10;48.00;;;;;;5053506;28;20041;-68
2021/07/25 12:42:50;;;;;;;15.20;8.43;;;31.10;48.40;;;;;;5053500;28;20033;-66
2021/07/25 12:45:27;;;;;;;8.63;6.15;;;31.00;49.20;;;;;;5054001;28;20044;-67
2021/07/25 12:48:20;;;;;;;11.75;6.45;;;31.10;49.60;;;;;;5054234;28;20033;-67
2021/07/25 12:53:41;;;;;;;9.27;6.88;;;31.10;51.10;;;;;;5053976;28;20029;-66